Terminal Aerodrome Forecast
Issued by NWS

Home | Current Version | Previous Version | Text Only | Print | Product List | Glossary On
Versions: 1 2 3 4 5 6 7 8 9 10 11 12 13 14 15 16
000
FTUS44 KLZK 052300
TAFADF
TAF
KADF 052338Z 0600/0624 14007KT P6SM SCT060 BKN100
     FM060200 15008KT P6SM VCTS SCT060CB BKN100
     FM060600 13005KT P6SM BKN060
     FM061500 16008G16KT P6SM SCT040 BKN080
     FM062000 15010G18KT P6SM VCTS BKN035CB=

USA.gov is the U.S. government's official web portal to all federal, state and local government web resources and services.